Los Angeles, CA (90076)

1:56 AM PDT on July 03, 2015 (GMT -0700)
Park Mile | | Change Station
CLOSE
Current Station
Personal Weather Station
Location: Los Angeles, CA
Elevation: 197 ft
Nearby Weather Stations

Elev 197 ft 34.06 °N, 118.32 °W | Updated 7 minutes ago

Partly Cloudy
Partly Cloudy
63.5 °F
Feels Like 63.5 °F
N
0.0
Wind Variable Wind from SSE

Today
High -- | Low -- °F
--% Chance of Precip.
Yesterday
High -- | Low -- °F
Precip. -- in
5:46 AM 8:08 PM
Full, 98% visible
Pressure 29.94 in
Visibility 9.0 miles
Clouds Few 700 ft
Dew Point 61 °F
Humidity 93%
Rainfall 0.00 in
Snow Depth Not available.
UV 0 out of 12
Pollen 4.10 out of 12
Air Quality Not available.
Flu Activity Not available.
METAR KCQT 030847Z AUTO 00000KT 9SM FEW007 18/16 A2994 RMK AO2 SLP136 T01780156 56004 $

More Conditions Fewer Conditions

Pressure 29.94 in
Visibility 9.0 miles
Clouds Few 700 ft
Dew Point 61 °F
Humidity 93%
Rainfall 0.00 in
Snow Depth Not available.
UV 0 out of 12
Pollen 4.10 out of 12
Air Quality Not available.
Flu Activity Not available.
METAR KCQT 030847Z AUTO 00000KT 9SM FEW007 18/16 A2994 RMK AO2 SLP136 T01780156 56004 $

More Conditions Fewer Conditions

10-Day Weather Forecast

×

Almanac

Astronomy

Jul. 03, 2015 Rise Set
Actual Time
Civil Twilight
Nautical Twilight
Astronomical Twilight
Moon
Length of Visible Light
Length of Day
Tomorrow will be .
, % of the Moon is Illuminated

Today's Extremes

State Highs State Lows

Community

WunderPhotos

Upload Photos

1,834,647 photos uploaded!

WunderBlogs® & News

Nearby

Air Quality

  Air Quality AQ Index Pollutant
Not available.

Snow Depth

Station Depth Elevation

Earthquake Activity

City Distance Mag. Time & Date
Minimum magnitude displayed is 2.5.

Coastal Water Temperatures

Place Temperature

Stations

Nearby Weather Stations

Station Location Temp. Windchill Dew Point Humidity Wind Precip. Elev Updated Type